sensor_id;sensor_type;location;lat;lon;timestamp;temperature;humidity
57576;DHT22;43412;-33.800;150.804;2022-12-07T00:01:05;28.70;81.50
57576;DHT22;43412;-33.800;150.804;2022-12-07T00:03:32;28.60;81.00
57576;DHT22;43412;-33.800;150.804;2022-12-07T00:05:59;28.30;80.60
57576;DHT22;43412;-33.800;150.804;2022-12-07T00:08:26;28.20;81.20
57576;DHT22;43412;-33.800;150.804;2022-12-07T00:10:52;28.20;81.30
57576;DHT22;43412;-33.800;150.804;2022-12-07T00:13:19;28.10;81.40
57576;DHT22;43412;-33.800;150.804;2022-12-07T00:15:46;28.00;80.60
57576;DHT22;43412;-33.800;150.804;2022-12-07T00:18:12;27.90;81.90
57576;DHT22;43412;-33.800;150.804;2022-12-07T00:20:39;28.10;82.30
57576;DHT22;43412;-33.800;150.804;2022-12-07T00:23:06;28.10;82.20
57576;DHT22;43412;-33.800;150.804;2022-12-07T00:25:32;28.10;81.10
57576;DHT22;43412;-33.800;150.804;2022-12-07T00:27:59;27.90;81.10
57576;DHT22;43412;-33.800;150.804;2022-12-07T00:30:26;27.70;82.00
57576;DHT22;43412;-33.800;150.804;2022-12-07T00:32:53;27.80;81.30
57576;DHT22;43412;-33.800;150.804;2022-12-07T00:35:19;27.90;80.00
57576;DHT22;43412;-33.800;150.804;2022-12-07T00:37:46;28.10;80.80
57576;DHT22;43412;-33.800;150.804;2022-12-07T00:40:12;28.10;81.40
57576;DHT22;43412;-33.800;150.804;2022-12-07T00:42:39;28.10;79.60
57576;DHT22;43412;-33.800;150.804;2022-12-07T00:45:06;28.20;79.90
57576;DHT22;43412;-33.800;150.804;2022-12-07T00:47:33;28.20;80.40
57576;DHT22;43412;-33.800;150.804;2022-12-07T00:49:59;28.40;80.00
57576;DHT22;43412;-33.800;150.804;2022-12-07T00:52:26;28.60;79.00
57576;DHT22;43412;-33.800;150.804;2022-12-07T00:54:53;28.70;77.20
57576;DHT22;43412;-33.800;150.804;2022-12-07T00:57:19;28.80;75.20
57576;DHT22;43412;-33.800;150.804;2022-12-07T00:59:46;28.80;75.00
57576;DHT22;43412;-33.800;150.804;2022-12-07T01:02:14;28.90;76.70
57576;DHT22;43412;-33.800;150.804;2022-12-07T01:04:41;29.10;75.10
57576;DHT22;43412;-33.800;150.804;2022-12-07T01:07:07;29.30;75.80
57576;DHT22;43412;-33.800;150.804;2022-12-07T01:09:34;29.20;76.30
57576;DHT22;43412;-33.800;150.804;2022-12-07T01:12:01;29.10;75.90
57576;DHT22;43412;-33.800;150.804;2022-12-07T01:14:28;29.00;76.50
57576;DHT22;43412;-33.800;150.804;2022-12-07T01:16:55;29.10;77.80
57576;DHT22;43412;-33.800;150.804;2022-12-07T01:19:21;29.30;78.30
57576;DHT22;43412;-33.800;150.804;2022-12-07T01:21:48;29.60;76.80
57576;DHT22;43412;-33.800;150.804;2022-12-07T01:24:15;29.60;76.60
57576;DHT22;43412;-33.800;150.804;2022-12-07T01:26:42;29.60;77.30
57576;DHT22;43412;-33.800;150.804;2022-12-07T01:29:08;29.60;78.10
57576;DHT22;43412;-33.800;150.804;2022-12-07T01:31:35;29.50;77.70
57576;DHT22;43412;-33.800;150.804;2022-12-07T01:34:02;29.50;77.80
57576;DHT22;43412;-33.800;150.804;2022-12-07T01:36:32;29.50;78.60
57576;DHT22;43412;-33.800;150.804;2022-12-07T01:39:02;29.50;78.10
57576;DHT22;43412;-33.800;150.804;2022-12-07T01:41:30;29.40;78.60
57576;DHT22;43412;-33.800;150.804;2022-12-07T01:44:17;29.50;76.90
57576;DHT22;43412;-33.800;150.804;2022-12-07T01:46:48;29.40;75.40
57576;DHT22;43412;-33.800;150.804;2022-12-07T01:49:29;29.20;76.40
57576;DHT22;43412;-33.800;150.804;2022-12-07T01:54:30;28.90;76.50
57576;DHT22;43412;-33.800;150.804;2022-12-07T01:56:57;29.00;77.10
57576;DHT22;43412;-33.800;150.804;2022-12-07T01:59:24;29.00;76.60
57576;DHT22;43412;-33.800;150.804;2022-12-07T02:01:52;29.10;75.80
57576;DHT22;43412;-33.800;150.804;2022-12-07T02:04:20;29.20;75.90
57576;DHT22;43412;-33.800;150.804;2022-12-07T02:06:47;29.30;75.50
57576;DHT22;43412;-33.800;150.804;2022-12-07T02:09:14;29.40;76.00
57576;DHT22;43412;-33.800;150.804;2022-12-07T02:11:41;29.40;73.70
57576;DHT22;43412;-33.800;150.804;2022-12-07T02:14:08;29.30;73.70
57576;DHT22;43412;-33.800;150.804;2022-12-07T02:16:47;29.20;73.60
57576;DHT22;43412;-33.800;150.804;2022-12-07T02:22:14;28.90;72.00
57576;DHT22;43412;-33.800;150.804;2022-12-07T02:30:26;28.80;71.10
57576;DHT22;43412;-33.800;150.804;2022-12-07T02:33:03;28.70;70.30
57576;DHT22;43412;-33.800;150.804;2022-12-07T02:43:14;28.30;68.80
57576;DHT22;43412;-33.800;150.804;2022-12-07T02:45:43;28.20;68.10
57576;DHT22;43412;-33.800;150.804;2022-12-07T02:48:12;28.10;68.30
57576;DHT22;43412;-33.800;150.804;2022-12-07T02:50:44;28.10;68.40
57576;DHT22;43412;-33.800;150.804;2022-12-07T02:55:55;28.10;66.70
57576;DHT22;43412;-33.800;150.804;2022-12-07T02:58:49;28.10;64.50
57576;DHT22;43412;-33.800;150.804;2022-12-07T03:01:23;28.00;63.30
57576;DHT22;43412;-33.800;150.804;2022-12-07T03:04:02;28.00;61.80
57576;DHT22;43412;-33.800;150.804;2022-12-07T03:06:35;27.90;61.80
57576;DHT22;43412;-33.800;150.804;2022-12-07T03:09:08;28.00;61.20
57576;DHT22;43412;-33.800;150.804;2022-12-07T03:11:45;28.10;60.90
57576;DHT22;43412;-33.800;150.804;2022-12-07T03:14:17;28.10;60.50
57576;DHT22;43412;-33.800;150.804;2022-12-07T03:16:50;28.20;60.50
57576;DHT22;43412;-33.800;150.804;2022-12-07T03:19:19;28.20;60.80
57576;DHT22;43412;-33.800;150.804;2022-12-07T03:21:51;28.10;60.40
57576;DHT22;43412;-33.800;150.804;2022-12-07T03:24:24;28.10;60.60
57576;DHT22;43412;-33.800;150.804;2022-12-07T03:26:53;28.10;60.50
57576;DHT22;43412;-33.800;150.804;2022-12-07T03:29:27;28.10;60.90
57576;DHT22;43412;-33.800;150.804;2022-12-07T03:34:40;28.00;61.10
57576;DHT22;43412;-33.800;150.804;2022-12-07T03:37:12;28.00;60.20
57576;DHT22;43412;-33.800;150.804;2022-12-07T03:42:14;27.90;58.80
57576;DHT22;43412;-33.800;150.804;2022-12-07T03:44:40;27.80;59.10
57576;DHT22;43412;-33.800;150.804;2022-12-07T03:52:26;27.80;58.50
57576;DHT22;43412;-33.800;150.804;2022-12-07T03:57:28;27.60;58.40
57576;DHT22;43412;-33.800;150.804;2022-12-07T03:59:55;27.40;58.30
57576;DHT22;43412;-33.800;150.804;2022-12-07T04:02:23;27.30;58.60
57576;DHT22;43412;-33.800;150.804;2022-12-07T04:04:51;27.20;58.30
57576;DHT22;43412;-33.800;150.804;2022-12-07T04:07:18;27.20;58.20
57576;DHT22;43412;-33.800;150.804;2022-12-07T04:09:45;27.10;56.40
57576;DHT22;43412;-33.800;150.804;2022-12-07T04:12:12;27.00;56.70
57576;DHT22;43412;-33.800;150.804;2022-12-07T04:14:38;27.00;56.50
57576;DHT22;43412;-33.800;150.804;2022-12-07T04:17:05;26.90;56.60
57576;DHT22;43412;-33.800;150.804;2022-12-07T04:19:32;26.90;56.60
57576;DHT22;43412;-33.800;150.804;2022-12-07T04:22:00;26.90;58.10
57576;DHT22;43412;-33.800;150.804;2022-12-07T04:24:27;26.90;58.70
57576;DHT22;43412;-33.800;150.804;2022-12-07T04:26:54;26.90;59.60
57576;DHT22;43412;-33.800;150.804;2022-12-07T04:29:21;26.90;59.50
57576;DHT22;43412;-33.800;150.804;2022-12-07T04:31:47;26.90;59.80
57576;DHT22;43412;-33.800;150.804;2022-12-07T04:34:15;26.90;59.90
57576;DHT22;43412;-33.800;150.804;2022-12-07T04:36:42;26.90;60.30
57576;DHT22;43412;-33.800;150.804;2022-12-07T04:39:13;26.90;60.90
57576;DHT22;43412;-33.800;150.804;2022-12-07T04:41:43;26.90;61.10
57576;DHT22;43412;-33.800;150.804;2022-12-07T04:44:10;26.90;61.60
57576;DHT22;43412;-33.800;150.804;2022-12-07T04:46:37;26.90;62.10
57576;DHT22;43412;-33.800;150.804;2022-12-07T04:49:04;26.90;62.00
57576;DHT22;43412;-33.800;150.804;2022-12-07T04:51:31;26.90;62.10
57576;DHT22;43412;-33.800;150.804;2022-12-07T04:53:58;26.90;61.80
57576;DHT22;43412;-33.800;150.804;2022-12-07T04:56:25;26.90;61.70
57576;DHT22;43412;-33.800;150.804;2022-12-07T04:58:52;26.90;61.40
57576;DHT22;43412;-33.800;150.804;2022-12-07T05:01:19;26.90;61.60
57576;DHT22;43412;-33.800;150.804;2022-12-07T05:03:46;26.90;61.50
57576;DHT22;43412;-33.800;150.804;2022-12-07T05:06:13;26.80;61.70
57576;DHT22;43412;-33.800;150.804;2022-12-07T05:08:40;26.80;61.50
57576;DHT22;43412;-33.800;150.804;2022-12-07T05:11:08;26.70;61.90
57576;DHT22;43412;-33.800;150.804;2022-12-07T05:13:35;26.50;62.20
57576;DHT22;43412;-33.800;150.804;2022-12-07T05:16:02;26.50;62.00
57576;DHT22;43412;-33.800;150.804;2022-12-07T05:18:29;26.40;62.20
57576;DHT22;43412;-33.800;150.804;2022-12-07T05:20:56;26.30;62.20
57576;DHT22;43412;-33.800;150.804;2022-12-07T05:23:22;26.20;62.90
57576;DHT22;43412;-33.800;150.804;2022-12-07T05:25:49;26.10;63.20
57576;DHT22;43412;-33.800;150.804;2022-12-07T05:28:16;26.10;63.40
57576;DHT22;43412;-33.800;150.804;2022-12-07T05:30:42;26.10;63.60
57576;DHT22;43412;-33.800;150.804;2022-12-07T05:33:09;26.00;64.00
57576;DHT22;43412;-33.800;150.804;2022-12-07T05:35:36;26.00;64.00
57576;DHT22;43412;-33.800;150.804;2022-12-07T05:38:03;25.90;64.40
57576;DHT22;43412;-33.800;150.804;2022-12-07T05:40:30;25.80;64.60
57576;DHT22;43412;-33.800;150.804;2022-12-07T05:42:57;25.80;65.20
57576;DHT22;43412;-33.800;150.804;2022-12-07T05:45:23;25.70;65.60
57576;DHT22;43412;-33.800;150.804;2022-12-07T05:47:50;25.60;66.20
57576;DHT22;43412;-33.800;150.804;2022-12-07T05:50:17;25.60;66.50
57576;DHT22;43412;-33.800;150.804;2022-12-07T05:52:43;25.60;67.00
57576;DHT22;43412;-33.800;150.804;2022-12-07T05:55:10;25.50;67.30
57576;DHT22;43412;-33.800;150.804;2022-12-07T05:57:37;25.50;67.70
57576;DHT22;43412;-33.800;150.804;2022-12-07T06:00:04;25.50;68.30
57576;DHT22;43412;-33.800;150.804;2022-12-07T06:02:31;25.50;68.70
57576;DHT22;43412;-33.800;150.804;2022-12-07T06:04:57;25.50;69.00
57576;DHT22;43412;-33.800;150.804;2022-12-07T06:07:24;25.50;69.50
57576;DHT22;43412;-33.800;150.804;2022-12-07T06:09:51;25.40;69.80
57576;DHT22;43412;-33.800;150.804;2022-12-07T06:12:18;25.40;70.60
57576;DHT22;43412;-33.800;150.804;2022-12-07T06:15:00;25.30;70.20
57576;DHT22;43412;-33.800;150.804;2022-12-07T06:17:27;25.30;70.60
57576;DHT22;43412;-33.800;150.804;2022-12-07T06:19:53;25.20;71.60
57576;DHT22;43412;-33.800;150.804;2022-12-07T06:22:20;25.20;72.20
57576;DHT22;43412;-33.800;150.804;2022-12-07T06:24:47;25.10;72.50
57576;DHT22;43412;-33.800;150.804;2022-12-07T06:27:13;25.00;73.00
57576;DHT22;43412;-33.800;150.804;2022-12-07T06:29:40;25.00;73.30
57576;DHT22;43412;-33.800;150.804;2022-12-07T06:32:07;25.00;73.50
57576;DHT22;43412;-33.800;150.804;2022-12-07T06:34:34;25.10;74.00
57576;DHT22;43412;-33.800;150.804;2022-12-07T06:37:01;25.10;73.90
57576;DHT22;43412;-33.800;150.804;2022-12-07T06:39:28;25.10;74.40
57576;DHT22;43412;-33.800;150.804;2022-12-07T06:41:55;25.10;75.60
57576;DHT22;43412;-33.800;150.804;2022-12-07T06:44:22;25.00;76.70
57576;DHT22;43412;-33.800;150.804;2022-12-07T06:46:49;24.90;77.50
57576;DHT22;43412;-33.800;150.804;2022-12-07T06:49:16;24.70;78.10
57576;DHT22;43412;-33.800;150.804;2022-12-07T06:51:42;24.60;78.60
57576;DHT22;43412;-33.800;150.804;2022-12-07T06:54:10;24.60;79.10
57576;DHT22;43412;-33.800;150.804;2022-12-07T06:56:37;24.50;79.30
57576;DHT22;43412;-33.800;150.804;2022-12-07T06:59:04;24.50;79.60
57576;DHT22;43412;-33.800;150.804;2022-12-07T07:01:32;24.50;80.00
57576;DHT22;43412;-33.800;150.804;2022-12-07T07:03:59;24.50;80.10
57576;DHT22;43412;-33.800;150.804;2022-12-07T07:06:26;24.40;80.20
57576;DHT22;43412;-33.800;150.804;2022-12-07T07:08:53;24.40;80.20
57576;DHT22;43412;-33.800;150.804;2022-12-07T07:11:20;24.30;80.10
57576;DHT22;43412;-33.800;150.804;2022-12-07T07:13:46;24.30;80.40
57576;DHT22;43412;-33.800;150.804;2022-12-07T07:16:13;24.30;80.80
57576;DHT22;43412;-33.800;150.804;2022-12-07T07:18:40;24.20;81.10
57576;DHT22;43412;-33.800;150.804;2022-12-07T07:21:07;24.20;81.20
57576;DHT22;43412;-33.800;150.804;2022-12-07T07:23:33;24.10;81.30
57576;DHT22;43412;-33.800;150.804;2022-12-07T07:26:00;24.10;82.20
57576;DHT22;43412;-33.800;150.804;2022-12-07T07:28:27;24.00;81.90
57576;DHT22;43412;-33.800;150.804;2022-12-07T07:30:53;23.90;81.90
57576;DHT22;43412;-33.800;150.804;2022-12-07T07:33:20;24.00;82.20
57576;DHT22;43412;-33.800;150.804;2022-12-07T07:35:47;23.90;82.30
57576;DHT22;43412;-33.800;150.804;2022-12-07T07:38:13;23.90;82.30
57576;DHT22;43412;-33.800;150.804;2022-12-07T07:40:40;23.90;82.40
57576;DHT22;43412;-33.800;150.804;2022-12-07T07:43:07;23.90;82.40
57576;DHT22;43412;-33.800;150.804;2022-12-07T07:45:34;23.90;82.60
57576;DHT22;43412;-33.800;150.804;2022-12-07T07:48:00;23.90;82.70
57576;DHT22;43412;-33.800;150.804;2022-12-07T07:50:27;23.80;82.90
57576;DHT22;43412;-33.800;150.804;2022-12-07T07:52:54;23.80;83.10
57576;DHT22;43412;-33.800;150.804;2022-12-07T07:55:21;23.80;83.30
57576;DHT22;43412;-33.800;150.804;2022-12-07T07:57:47;23.70;83.40
57576;DHT22;43412;-33.800;150.804;2022-12-07T08:00:14;23.70;83.70
57576;DHT22;43412;-33.800;150.804;2022-12-07T08:02:42;23.70;83.80
57576;DHT22;43412;-33.800;150.804;2022-12-07T08:05:12;23.70;84.00
57576;DHT22;43412;-33.800;150.804;2022-12-07T08:07:39;23.70;84.20
57576;DHT22;43412;-33.800;150.804;2022-12-07T08:10:06;23.70;84.30
57576;DHT22;43412;-33.800;150.804;2022-12-07T08:12:36;23.60;84.30
57576;DHT22;43412;-33.800;150.804;2022-12-07T08:15:24;23.60;84.60
57576;DHT22;43412;-33.800;150.804;2022-12-07T08:17:50;23.60;84.70
57576;DHT22;43412;-33.800;150.804;2022-12-07T08:20:17;23.60;84.70
57576;DHT22;43412;-33.800;150.804;2022-12-07T08:22:44;23.60;84.80
57576;DHT22;43412;-33.800;150.804;2022-12-07T08:25:10;23.50;85.00
57576;DHT22;43412;-33.800;150.804;2022-12-07T08:27:37;23.50;85.10
57576;DHT22;43412;-33.800;150.804;2022-12-07T08:30:04;23.40;85.00
57576;DHT22;43412;-33.800;150.804;2022-12-07T08:32:31;23.40;85.30
57576;DHT22;43412;-33.800;150.804;2022-12-07T08:34:57;23.40;85.40
57576;DHT22;43412;-33.800;150.804;2022-12-07T08:37:24;23.30;85.50
57576;DHT22;43412;-33.800;150.804;2022-12-07T08:39:51;23.30;85.70
57576;DHT22;43412;-33.800;150.804;2022-12-07T08:42:18;23.30;86.00
57576;DHT22;43412;-33.800;150.804;2022-12-07T08:44:45;23.20;86.10
57576;DHT22;43412;-33.800;150.804;2022-12-07T08:47:12;23.20;86.30
57576;DHT22;43412;-33.800;150.804;2022-12-07T08:49:43;23.10;86.40
57576;DHT22;43412;-33.800;150.804;2022-12-07T08:52:12;23.10;86.60
57576;DHT22;43412;-33.800;150.804;2022-12-07T08:54:38;23.00;86.80
57576;DHT22;43412;-33.800;150.804;2022-12-07T08:57:06;22.90;87.20
57576;DHT22;43412;-33.800;150.804;2022-12-07T08:59:33;22.90;87.20
57576;DHT22;43412;-33.800;150.804;2022-12-07T09:02:01;22.90;87.10
57576;DHT22;43412;-33.800;150.804;2022-12-07T09:04:27;22.80;87.30
57576;DHT22;43412;-33.800;150.804;2022-12-07T09:06:54;22.80;87.50
57576;DHT22;43412;-33.800;150.804;2022-12-07T09:09:21;22.80;87.70
57576;DHT22;43412;-33.800;150.804;2022-12-07T09:11:48;22.80;87.80
57576;DHT22;43412;-33.800;150.804;2022-12-07T09:14:15;22.80;88.20
57576;DHT22;43412;-33.800;150.804;2022-12-07T09:16:43;22.80;88.20
57576;DHT22;43412;-33.800;150.804;2022-12-07T09:19:09;22.70;88.70
57576;DHT22;43412;-33.800;150.804;2022-12-07T09:21:36;22.60;89.00
57576;DHT22;43412;-33.800;150.804;2022-12-07T09:24:03;22.60;89.10
57576;DHT22;43412;-33.800;150.804;2022-12-07T09:26:29;22.50;89.20
57576;DHT22;43412;-33.800;150.804;2022-12-07T09:28:56;22.50;89.80
57576;DHT22;43412;-33.800;150.804;2022-12-07T09:31:23;22.40;90.10
57576;DHT22;43412;-33.800;150.804;2022-12-07T09:33:57;22.40;90.40
57576;DHT22;43412;-33.800;150.804;2022-12-07T09:36:24;22.40;90.50
57576;DHT22;43412;-33.800;150.804;2022-12-07T09:38:51;22.30;90.40
57576;DHT22;43412;-33.800;150.804;2022-12-07T09:41:18;22.30;90.50
57576;DHT22;43412;-33.800;150.804;2022-12-07T09:43:45;22.30;90.50
57576;DHT22;43412;-33.800;150.804;2022-12-07T09:46:14;22.20;90.50
57576;DHT22;43412;-33.800;150.804;2022-12-07T09:48:41;22.20;90.50
57576;DHT22;43412;-33.800;150.804;2022-12-07T09:51:19;22.20;90.40
57576;DHT22;43412;-33.800;150.804;2022-12-07T09:53:46;22.20;90.30
57576;DHT22;43412;-33.800;150.804;2022-12-07T09:56:13;22.30;90.30
57576;DHT22;43412;-33.800;150.804;2022-12-07T09:58:40;22.30;90.10
57576;DHT22;43412;-33.800;150.804;2022-12-07T10:03:35;22.40;90.00
57576;DHT22;43412;-33.800;150.804;2022-12-07T10:06:02;22.30;90.10
57576;DHT22;43412;-33.800;150.804;2022-12-07T10:08:28;22.30;90.20
57576;DHT22;43412;-33.800;150.804;2022-12-07T10:10:55;22.30;90.40
57576;DHT22;43412;-33.800;150.804;2022-12-07T10:13:33;22.30;90.40
57576;DHT22;43412;-33.800;150.804;2022-12-07T10:16:00;22.20;90.40
57576;DHT22;43412;-33.800;150.804;2022-12-07T10:21:01;22.20;90.10
57576;DHT22;43412;-33.800;150.804;2022-12-07T10:23:29;22.20;90.20
57576;DHT22;43412;-33.800;150.804;2022-12-07T10:25:55;22.30;90.20
57576;DHT22;43412;-33.800;150.804;2022-12-07T10:28:22;22.20;90.10
57576;DHT22;43412;-33.800;150.804;2022-12-07T10:30:56;22.20;90.20
57576;DHT22;43412;-33.800;150.804;2022-12-07T10:35:54;22.30;90.20
57576;DHT22;43412;-33.800;150.804;2022-12-07T10:38:21;22.20;90.20
57576;DHT22;43412;-33.800;150.804;2022-12-07T10:40:48;22.20;90.00
57576;DHT22;43412;-33.800;150.804;2022-12-07T10:43:28;22.20;90.10
57576;DHT22;43412;-33.800;150.804;2022-12-07T11:01:39;21.80;90.60
57576;DHT22;43412;-33.800;150.804;2022-12-07T11:03:48;21.80;90.60
57576;DHT22;43412;-33.800;150.804;2022-12-07T11:13:56;21.70;91.20
57576;DHT22;43412;-33.800;150.804;2022-12-07T11:24:27;21.50;91.50
57576;DHT22;43412;-33.800;150.804;2022-12-07T11:37:16;21.30;92.00
57576;DHT22;43412;-33.800;150.804;2022-12-07T11:39:48;21.30;91.80
57576;DHT22;43412;-33.800;150.804;2022-12-07T11:42:19;21.30;91.60
57576;DHT22;43412;-33.800;150.804;2022-12-07T11:52:51;21.20;91.50
57576;DHT22;43412;-33.800;150.804;2022-12-07T11:55:26;21.20;91.50
57576;DHT22;43412;-33.800;150.804;2022-12-07T11:57:58;21.10;91.60
57576;DHT22;43412;-33.800;150.804;2022-12-07T12:00:27;21.00;91.60
57576;DHT22;43412;-33.800;150.804;2022-12-07T12:03:05;21.00;91.70
57576;DHT22;43412;-33.800;150.804;2022-12-07T12:05:36;20.90;92.10
57576;DHT22;43412;-33.800;150.804;2022-12-07T12:08:16;20.90;92.10
57576;DHT22;43412;-33.800;150.804;2022-12-07T12:13:29;20.80;92.10
57576;DHT22;43412;-33.800;150.804;2022-12-07T12:18:34;20.80;92.10
57576;DHT22;43412;-33.800;150.804;2022-12-07T12:21:07;20.70;92.00
57576;DHT22;43412;-33.800;150.804;2022-12-07T12:26:05;20.70;92.00
57576;DHT22;43412;-33.800;150.804;2022-12-07T12:31:30;20.60;92.20
57576;DHT22;43412;-33.800;150.804;2022-12-07T12:33:59;20.50;92.40
57576;DHT22;43412;-33.800;150.804;2022-12-07T12:51:44;20.40;92.40
57576;DHT22;43412;-33.800;150.804;2022-12-07T12:54:22;20.50;92.50
57576;DHT22;43412;-33.800;150.804;2022-12-07T12:56:53;20.50;92.60
57576;DHT22;43412;-33.800;150.804;2022-12-07T13:07:47;20.30;92.90
57576;DHT22;43412;-33.800;150.804;2022-12-07T13:15:38;20.30;93.10
57576;DHT22;43412;-33.800;150.804;2022-12-07T13:20:54;20.30;93.20
57576;DHT22;43412;-33.800;150.804;2022-12-07T13:23:24;20.20;93.30
57576;DHT22;43412;-33.800;150.804;2022-12-07T13:28:18;20.10;93.40
57576;DHT22;43412;-33.800;150.804;2022-12-07T13:31:10;20.00;93.70
57576;DHT22;43412;-33.800;150.804;2022-12-07T13:33:38;20.00;93.90
57576;DHT22;43412;-33.800;150.804;2022-12-07T13:38:49;19.70;94.40
57576;DHT22;43412;-33.800;150.804;2022-12-07T13:41:17;19.60;94.50
57576;DHT22;43412;-33.800;150.804;2022-12-07T13:43:58;19.50;94.80
57576;DHT22;43412;-33.800;150.804;2022-12-07T13:46:29;19.40;95.00
57576;DHT22;43412;-33.800;150.804;2022-12-07T13:48:57;19.20;95.00
57576;DHT22;43412;-33.800;150.804;2022-12-07T13:51:25;19.10;95.40
57576;DHT22;43412;-33.800;150.804;2022-12-07T13:53:57;19.00;95.70
57576;DHT22;43412;-33.800;150.804;2022-12-07T13:56:32;19.00;95.80
57576;DHT22;43412;-33.800;150.804;2022-12-07T13:58:59;18.90;96.10
57576;DHT22;43412;-33.800;150.804;2022-12-07T14:01:26;18.80;96.40
57576;DHT22;43412;-33.800;150.804;2022-12-07T14:03:54;18.80;96.40
57576;DHT22;43412;-33.800;150.804;2022-12-07T14:06:23;18.70;96.50
57576;DHT22;43412;-33.800;150.804;2022-12-07T14:11:54;18.70;96.70
57576;DHT22;43412;-33.800;150.804;2022-12-07T14:14:25;18.80;96.60
57576;DHT22;43412;-33.800;150.804;2022-12-07T14:17:00;18.80;96.50
57576;DHT22;43412;-33.800;150.804;2022-12-07T14:25:01;18.90;96.40
57576;DHT22;43412;-33.800;150.804;2022-12-07T14:27:35;19.10;96.30
57576;DHT22;43412;-33.800;150.804;2022-12-07T14:30:03;19.10;96.30
57576;DHT22;43412;-33.800;150.804;2022-12-07T14:32:30;19.10;96.30
57576;DHT22;43412;-33.800;150.804;2022-12-07T14:37:24;19.00;96.50
57576;DHT22;43412;-33.800;150.804;2022-12-07T14:39:51;18.90;96.60
57576;DHT22;43412;-33.800;150.804;2022-12-07T14:42:35;18.80;96.80
57576;DHT22;43412;-33.800;150.804;2022-12-07T14:45:02;18.70;97.00
57576;DHT22;43412;-33.800;150.804;2022-12-07T14:47:29;18.70;97.20
57576;DHT22;43412;-33.800;150.804;2022-12-07T14:49:56;18.70;97.30
57576;DHT22;43412;-33.800;150.804;2022-12-07T14:52:27;18.70;97.30
57576;DHT22;43412;-33.800;150.804;2022-12-07T14:54:54;18.80;97.30
57576;DHT22;43412;-33.800;150.804;2022-12-07T14:57:23;18.80;97.20
57576;DHT22;43412;-33.800;150.804;2022-12-07T14:59:50;18.90;97.20
57576;DHT22;43412;-33.800;150.804;2022-12-07T15:02:17;18.90;97.10
57576;DHT22;43412;-33.800;150.804;2022-12-07T15:04:43;19.00;97.10
57576;DHT22;43412;-33.800;150.804;2022-12-07T15:07:17;18.90;97.00
57576;DHT22;43412;-33.800;150.804;2022-12-07T15:09:45;19.00;97.20
57576;DHT22;43412;-33.800;150.804;2022-12-07T15:12:12;19.00;97.10
57576;DHT22;43412;-33.800;150.804;2022-12-07T15:14:39;19.00;97.00
57576;DHT22;43412;-33.800;150.804;2022-12-07T15:17:05;19.00;97.00
57576;DHT22;43412;-33.800;150.804;2022-12-07T15:19:32;19.00;97.10
57576;DHT22;43412;-33.800;150.804;2022-12-07T15:21:59;18.90;97.20
57576;DHT22;43412;-33.800;150.804;2022-12-07T15:24:25;18.90;97.30
57576;DHT22;43412;-33.800;150.804;2022-12-07T15:26:52;18.80;97.40
57576;DHT22;43412;-33.800;150.804;2022-12-07T15:29:19;18.70;97.50
57576;DHT22;43412;-33.800;150.804;2022-12-07T15:31:47;18.70;97.70
57576;DHT22;43412;-33.800;150.804;2022-12-07T15:34:14;18.60;97.80
57576;DHT22;43412;-33.800;150.804;2022-12-07T15:36:41;18.50;98.10
57576;DHT22;43412;-33.800;150.804;2022-12-07T15:39:08;18.40;98.20
57576;DHT22;43412;-33.800;150.804;2022-12-07T15:41:35;18.40;98.30
57576;DHT22;43412;-33.800;150.804;2022-12-07T15:44:02;18.30;98.50
57576;DHT22;43412;-33.800;150.804;2022-12-07T15:46:46;18.20;98.70
57576;DHT22;43412;-33.800;150.804;2022-12-07T15:49:15;18.20;98.80
57576;DHT22;43412;-33.800;150.804;2022-12-07T15:51:42;18.20;99.20
57576;DHT22;43412;-33.800;150.804;2022-12-07T15:54:13;18.20;99.00
57576;DHT22;43412;-33.800;150.804;2022-12-07T15:56:40;18.10;99.20
57576;DHT22;43412;-33.800;150.804;2022-12-07T15:59:06;18.20;99.30
57576;DHT22;43412;-33.800;150.804;2022-12-07T16:01:33;18.30;99.30
57576;DHT22;43412;-33.800;150.804;2022-12-07T16:04:00;18.50;99.00
57576;DHT22;43412;-33.800;150.804;2022-12-07T16:06:26;18.70;98.70
57576;DHT22;43412;-33.800;150.804;2022-12-07T16:08:53;18.90;98.50
57576;DHT22;43412;-33.800;150.804;2022-12-07T16:11:20;18.90;98.30
57576;DHT22;43412;-33.800;150.804;2022-12-07T16:13:47;19.00;98.20
57576;DHT22;43412;-33.800;150.804;2022-12-07T16:16:14;19.20;97.90
57576;DHT22;43412;-33.800;150.804;2022-12-07T16:18:44;19.30;97.70
57576;DHT22;43412;-33.800;150.804;2022-12-07T16:21:11;19.40;97.50
57576;DHT22;43412;-33.800;150.804;2022-12-07T16:23:38;19.40;97.50
57576;DHT22;43412;-33.800;150.804;2022-12-07T16:26:10;19.30;97.50
57576;DHT22;43412;-33.800;150.804;2022-12-07T16:28:37;19.30;97.60
57576;DHT22;43412;-33.800;150.804;2022-12-07T16:31:07;19.20;97.60
57576;DHT22;43412;-33.800;150.804;2022-12-07T16:33:35;19.20;97.80
57576;DHT22;43412;-33.800;150.804;2022-12-07T16:36:04;19.30;97.90
57576;DHT22;43412;-33.800;150.804;2022-12-07T16:38:31;19.40;97.70
57576;DHT22;43412;-33.800;150.804;2022-12-07T16:40:58;19.40;97.60
57576;DHT22;43412;-33.800;150.804;2022-12-07T16:43:24;19.40;97.60
57576;DHT22;43412;-33.800;150.804;2022-12-07T16:45:51;19.50;97.60
57576;DHT22;43412;-33.800;150.804;2022-12-07T16:48:18;19.50;97.50
57576;DHT22;43412;-33.800;150.804;2022-12-07T16:50:45;19.50;97.50
57576;DHT22;43412;-33.800;150.804;2022-12-07T16:53:13;19.50;97.50
57576;DHT22;43412;-33.800;150.804;2022-12-07T16:55:42;19.50;97.50
57576;DHT22;43412;-33.800;150.804;2022-12-07T16:58:10;19.50;97.50
57576;DHT22;43412;-33.800;150.804;2022-12-07T17:00:37;19.60;97.40
57576;DHT22;43412;-33.800;150.804;2022-12-07T17:03:04;19.60;97.30
57576;DHT22;43412;-33.800;150.804;2022-12-07T17:05:31;19.60;97.40
57576;DHT22;43412;-33.800;150.804;2022-12-07T17:07:58;19.50;97.40
57576;DHT22;43412;-33.800;150.804;2022-12-07T17:10:25;19.50;97.40
57576;DHT22;43412;-33.800;150.804;2022-12-07T17:12:52;19.50;97.50
57576;DHT22;43412;-33.800;150.804;2022-12-07T17:15:19;19.40;97.50
57576;DHT22;43412;-33.800;150.804;2022-12-07T17:17:55;19.40;97.60
57576;DHT22;43412;-33.800;150.804;2022-12-07T17:20:23;19.30;97.70
57576;DHT22;43412;-33.800;150.804;2022-12-07T17:22:50;19.30;97.70
57576;DHT22;43412;-33.800;150.804;2022-12-07T17:25:20;19.40;97.70